Time;durP1;ratioP1;P1;durP2;ratioP2;P2;SDS_P1;SDS_P2;PMS_P1;PMS_P2;Temp;Humidity;BMP_temperature;BMP_pressure;BME280_temperature;BME280_humidity;BME280_pressure;Samples;Min_cycle;Max_cycle;Signal;HPM_P1;HPM_P2
2022/05/26 00:01:10;;;;;;;22.35;9.93;;;25.00;49.70;;;;;;4955398;28;20028;-74
2022/05/26 00:03:39;;;;;;;23.05;9.27;;;25.00;50.00;;;;;;4957019;29;20082;-75
2022/05/26 00:06:07;;;;;;;24.00;9.23;;;25.00;49.80;;;;;;4956680;28;20461;-75
2022/05/26 00:08:37;;;;;;;17.88;8.93;;;24.90;49.80;;;;;;4956687;28;20027;-73
2022/05/26 00:11:05;;;;;;;22.90;9.50;;;24.80;50.10;;;;;;4956757;29;20098;-71
2022/05/26 00:13:31;;;;;;;16.08;8.30;;;24.80;50.00;;;;;;4956576;28;20054;-71
2022/05/26 00:15:57;;;;;;;22.65;8.80;;;24.70;49.60;;;;;;4955118;28;20063;-71
2022/05/26 00:18:22;;;;;;;27.08;9.25;;;24.70;49.60;;;;;;4955498;29;20114;-74
2022/05/26 00:20:48;;;;;;;25.17;8.50;;;24.70;49.60;;;;;;4956980;29;20031;-75
2022/05/26 00:23:14;;;;;;;22.73;8.00;;;24.70;49.30;;;;;;4956736;28;20094;-73
2022/05/26 00:25:40;;;;;;;17.52;7.88;;;24.70;49.00;;;;;;4956385;28;20046;-73
2022/05/26 00:28:06;;;;;;;19.60;7.10;;;24.60;48.90;;;;;;4956345;28;20031;-73
2022/05/26 00:30:32;;;;;;;20.25;7.70;;;24.50;48.90;;;;;;4955151;29;20023;-74
2022/05/26 00:32:59;;;;;;;21.05;7.88;;;24.40;48.90;;;;;;4956312;28;20027;-72
2022/05/26 00:35:26;;;;;;;18.63;7.53;;;24.40;49.20;;;;;;4956511;28;20035;-74
2022/05/26 00:37:52;;;;;;;18.85;7.78;;;24.40;49.00;;;;;;4956630;29;20030;-72
2022/05/26 00:40:18;;;;;;;17.08;7.93;;;24.40;48.50;;;;;;4956153;29;20035;-73
2022/05/26 00:42:45;;;;;;;20.42;7.88;;;24.30;48.60;;;;;;4955966;28;20034;-72
2022/05/26 00:45:11;;;;;;;28.02;7.88;;;24.20;48.50;;;;;;4956392;28;20027;-73
2022/05/26 00:47:46;;;;;;;22.85;7.78;;;24.20;48.70;;;;;;4956054;28;20033;-73
2022/05/26 00:50:16;;;;;;;17.55;7.72;;;24.10;48.60;;;;;;4955784;28;20516;-74
2022/05/26 00:52:47;;;;;;;19.02;8.05;;;24.10;48.60;;;;;;4955943;28;20042;-74
2022/05/26 00:55:26;;;;;;;19.02;8.32;;;24.00;48.70;;;;;;4955693;29;20039;-72
2022/05/26 00:58:02;;;;;;;19.15;8.35;;;24.00;48.80;;;;;;4955791;28;20141;-73
2022/05/26 01:00:33;;;;;;;18.20;9.07;;;24.00;48.80;;;;;;4955739;28;20444;-72
2022/05/26 01:03:12;;;;;;;25.08;8.77;;;24.00;48.80;;;;;;4954553;28;20019;-74
2022/05/26 01:05:45;;;;;;;22.80;8.82;;;24.00;47.20;;;;;;4955839;28;20023;-72
2022/05/26 01:08:19;;;;;;;22.20;8.73;;;24.10;48.50;;;;;;4955811;28;20031;-71
2022/05/26 01:10:45;;;;;;;20.65;9.73;;;24.10;48.40;;;;;;4955405;28;20373;-71
2022/05/26 01:13:14;;;;;;;24.08;9.15;;;24.10;48.20;;;;;;4955690;28;20035;-72
2022/05/26 01:15:42;;;;;;;23.77;9.82;;;24.00;48.10;;;;;;4955519;29;20043;-71
2022/05/26 01:18:35;;;;;;;26.67;10.15;;;24.00;48.20;;;;;;4955492;28;20066;-70
2022/05/26 01:21:40;;;;;;;23.50;9.13;;;24.00;46.90;;;;;;4955418;29;20030;-71
2022/05/26 01:24:24;;;;;;;;;;;24.00;46.80;;;;;;4951262;29;20289;-72
2022/05/26 01:27:34;;;;;;;26.60;9.77;;;23.90;47.20;;;;;;4955752;28;19916;-73
2022/05/26 01:30:17;;;;;;;22.63;8.57;;;23.90;46.90;;;;;;4955143;28;20440;-71
2022/05/26 01:33:18;;;;;;;14.32;7.07;;;23.80;47.40;;;;;;4953949;28;20027;-72
2022/05/26 01:35:59;;;;;;;21.40;8.60;;;23.70;47.60;;;;;;4955233;29;20066;-71
2022/05/26 01:38:40;;;;;;;17.95;7.22;;;23.70;48.10;;;;;;4954933;29;20487;-72
2022/05/26 01:41:32;;;;;;;25.77;9.80;;;23.70;48.30;;;;;;4955283;29;20110;-75
2022/05/26 01:44:11;;;;;;;18.38;7.72;;;23.60;49.30;;;;;;4955107;28;20070;-74
2022/05/26 01:46:44;;;;;;;16.77;7.07;;;23.50;49.60;;;;;;4955131;28;20074;-71
2022/05/26 01:49:22;;;;;;;13.63;7.57;;;23.40;49.70;;;;;;4954856;28;20081;-71
2022/05/26 01:52:00;;;;;;;14.15;7.05;;;23.40;49.80;;;;;;4954728;28;20078;-71
2022/05/26 01:54:41;;;;;;;16.95;7.10;;;23.40;49.40;;;;;;4954978;29;20043;-72
2022/05/26 01:57:12;;;;;;;14.27;7.55;;;23.40;49.90;;;;;;4953570;29;20119;-70
2022/05/26 01:59:43;;;;;;;18.35;8.38;;;23.30;50.40;;;;;;4953460;29;20028;-72
2022/05/26 02:02:18;;;;;;;11.68;7.40;;;23.30;50.70;;;;;;4954669;28;20436;-73
2022/05/26 02:04:52;;;;;;;16.63;7.72;;;23.20;50.70;;;;;;4955022;28;20028;-71
2022/05/26 02:07:26;;;;;;;16.48;7.22;;;23.30;50.90;;;;;;4954989;28;20027;-71
2022/05/26 02:09:54;;;;;;;18.75;7.30;;;23.30;50.90;;;;;;4954210;28;20035;-70
2022/05/26 02:12:37;;;;;;;13.38;6.28;;;23.40;51.00;;;;;;4954844;28;20023;-70
2022/05/26 02:15:08;;;;;;;;;;;23.40;50.80;;;;;;4955372;28;20039;-70
2022/05/26 02:18:01;;;;;;;15.85;5.78;;;23.30;50.60;;;;;;4955023;28;19906;-69
2022/05/26 02:20:35;;;;;;;18.00;5.70;;;23.30;50.40;;;;;;4952069;28;20111;-72
2022/05/26 02:23:35;;;;;;;20.15;5.07;;;23.30;50.80;;;;;;4955244;28;20102;-73
2022/05/26 02:26:03;;;;;;;11.95;5.70;;;23.30;50.20;;;;;;4949935;29;20051;-71
2022/05/26 02:29:51;;;;;;;16.98;4.93;;;23.30;50.60;;;;;;4954747;28;20024;-71
2022/05/26 02:31:18;;;;;;;15.38;5.60;;;23.30;50.50;;;;;;4954554;28;20489;-70
2022/05/26 02:33:44;;;;;;;12.40;5.20;;;23.30;50.90;;;;;;4954462;28;20035;-72
2022/05/26 02:36:11;;;;;;;11.00;5.25;;;23.30;50.80;;;;;;4954570;29;20035;-72
2022/05/26 02:38:36;;;;;;;12.30;4.45;;;23.20;50.70;;;;;;4954659;28;20102;-71
2022/05/26 02:41:02;;;;;;;12.75;5.07;;;23.20;50.80;;;;;;4954443;29;20504;-70
2022/05/26 02:43:32;;;;;;;14.80;4.88;;;23.20;50.90;;;;;;4954562;29;20358;-72
2022/05/26 02:46:16;;;;;;;15.75;5.35;;;23.20;50.90;;;;;;4954650;28;20023;-70
2022/05/26 02:49:02;;;;;;;12.25;4.95;;;23.30;50.40;;;;;;4954576;29;20038;-72
2022/05/26 02:51:43;;;;;;;11.05;4.70;;;23.40;50.10;;;;;;4954217;29;20077;-72
2022/05/26 02:54:44;;;;;;;10.27;4.53;;;23.40;49.90;;;;;;4954242;28;20385;-71
2022/05/26 02:57:15;;;;;;;12.82;4.45;;;23.40;49.50;;;;;;4946122;29;20039;-71
2022/05/26 03:00:02;;;;;;;15.40;4.47;;;23.20;49.60;;;;;;4954429;28;20059;-71
2022/05/26 03:02:42;;;;;;;13.38;4.55;;;23.20;49.70;;;;;;4954431;28;20173;-71
2022/05/26 03:05:15;;;;;;;13.35;4.07;;;23.30;49.10;;;;;;4954851;29;20102;-70
2022/05/26 03:07:44;;;;;;;17.27;4.35;;;23.30;49.70;;;;;;4954437;28;20094;-71
2022/05/26 03:10:10;;;;;;;10.50;4.22;;;23.20;49.50;;;;;;4954148;29;20091;-70
2022/05/26 03:12:36;;;;;;;14.05;4.15;;;23.20;49.40;;;;;;4954347;28;20039;-70
2022/05/26 03:15:06;;;;;;;9.93;4.10;;;23.20;49.40;;;;;;4954228;28;20110;-71
2022/05/26 03:17:32;;;;;;;13.02;4.40;;;23.20;49.30;;;;;;4954216;28;20365;-70
2022/05/26 03:19:57;;;;;;;11.77;4.32;;;23.20;49.60;;;;;;4953998;28;20030;-70
2022/05/26 03:22:23;;;;;;;10.60;4.28;;;23.30;49.50;;;;;;4956433;28;20027;-70
2022/05/26 03:24:51;;;;;;;15.60;4.35;;;23.30;49.30;;;;;;4957613;29;20054;-70
2022/05/26 03:27:16;;;;;;;9.18;4.18;;;23.30;49.30;;;;;;4957471;28;20079;-72
2022/05/26 03:29:42;;;;;;;9.95;4.43;;;23.30;49.30;;;;;;4957266;29;20094;-70
2022/05/26 03:32:08;;;;;;;15.30;4.88;;;23.30;49.50;;;;;;4955976;29;20069;-71
2022/05/26 03:42:52;;;;;;;12.95;4.70;;;23.20;50.10;;;;;;4957363;29;20058;-70
2022/05/26 03:45:22;;;;;;;11.48;4.38;;;23.20;50.10;;;;;;4957256;29;20110;-71
2022/05/26 03:47:49;;;;;;;12.13;4.55;;;23.20;50.10;;;;;;4957129;28;20028;-70
2022/05/26 03:50:15;;;;;;;12.57;4.22;;;23.20;50.00;;;;;;4956895;28;20488;-71
2022/05/26 03:52:41;;;;;;;11.70;4.00;;;23.20;49.90;;;;;;4956888;28;20031;-72
2022/05/26 03:55:07;;;;;;;12.43;4.32;;;23.20;50.10;;;;;;4957035;28;20398;-71
2022/05/26 03:57:33;;;;;;;12.55;5.05;;;23.20;50.10;;;;;;4955564;29;20496;-71
2022/05/26 03:59:58;;;;;;;13.02;4.22;;;23.30;50.30;;;;;;4955561;29;20059;-70
2022/05/26 04:02:25;;;;;;;7.75;4.00;;;23.30;50.00;;;;;;4957064;29;20027;-71
2022/05/26 04:04:51;;;;;;;15.85;4.78;;;23.30;50.10;;;;;;4956843;28;20090;-71
2022/05/26 04:07:17;;;;;;;14.32;4.25;;;23.30;49.90;;;;;;4956784;29;20024;-71
2022/05/26 04:09:42;;;;;;;13.05;4.07;;;23.30;49.90;;;;;;4956746;28;20073;-71
2022/05/26 04:12:10;;;;;;;11.23;4.38;;;23.30;50.10;;;;;;4956741;28;20023;-71
2022/05/26 04:14:37;;;;;;;12.77;4.65;;;23.30;50.00;;;;;;4955528;29;20035;-71
2022/05/26 04:17:03;;;;;;;12.40;4.25;;;23.30;50.20;;;;;;4955350;29;20030;-72
2022/05/26 04:19:29;;;;;;;15.02;4.43;;;23.30;50.00;;;;;;4956568;28;20027;-71
2022/05/26 04:24:38;;;;;;;15.55;4.68;;;23.30;49.70;;;;;;4956662;29;20094;-72
2022/05/26 04:27:05;;;;;;;18.27;4.57;;;23.30;50.10;;;;;;4956512;28;20521;-70
2022/05/26 04:29:32;;;;;;;8.02;3.92;;;23.30;50.20;;;;;;4956189;28;20042;-72
2022/05/26 04:31:58;;;;;;;13.25;4.32;;;23.30;50.20;;;;;;4955937;28;20083;-71
2022/05/26 04:34:24;;;;;;;15.60;4.63;;;23.30;50.20;;;;;;4956266;28;20043;-71
2022/05/26 04:36:50;;;;;;;14.43;4.20;;;23.40;50.50;;;;;;4956195;28;20038;-70
2022/05/26 04:39:17;;;;;;;9.90;3.90;;;23.40;50.10;;;;;;4955955;28;20048;-71
2022/05/26 04:41:43;;;;;;;16.08;4.60;;;23.40;50.20;;;;;;4956124;28;20019;-72
2022/05/26 04:44:14;;;;;;;15.90;4.65;;;23.40;50.30;;;;;;4956268;28;20425;-72
2022/05/26 04:46:40;;;;;;;14.98;4.68;;;23.40;50.20;;;;;;4955925;28;20074;-71
2022/05/26 04:49:07;;;;;;;13.98;4.40;;;23.40;50.30;;;;;;4956071;28;20027;-71
2022/05/26 04:51:37;;;;;;;18.02;5.07;;;23.40;50.40;;;;;;4955827;28;20179;-71
2022/05/26 04:54:04;;;;;;;13.18;4.53;;;23.50;50.60;;;;;;4955911;28;20015;-72
2022/05/26 04:56:31;;;;;;;9.93;4.63;;;23.50;50.60;;;;;;4955979;28;20090;-71
2022/05/26 04:58:57;;;;;;;14.77;4.88;;;23.50;50.60;;;;;;4955483;28;20055;-71
2022/05/26 05:01:23;;;;;;;16.73;5.20;;;23.50;50.70;;;;;;4954222;28;20031;-72
2022/05/26 05:03:49;;;;;;;16.40;5.28;;;23.50;50.60;;;;;;4955726;28;20031;-71
2022/05/26 05:06:15;;;;;;;13.98;4.65;;;23.50;50.70;;;;;;4955641;28;20030;-71
2022/05/26 05:08:42;;;;;;;16.33;4.65;;;23.60;50.80;;;;;;4955901;28;20175;-74
2022/05/26 05:11:10;;;;;;;15.30;5.05;;;23.70;50.80;;;;;;4955670;28;20040;-73
2022/05/26 05:13:35;;;;;;;16.58;4.90;;;23.70;50.70;;;;;;4955496;28;20035;-73
2022/05/26 05:16:16;;;;;;;12.25;4.78;;;23.80;50.50;;;;;;4955684;29;20030;-74
2022/05/26 05:18:44;;;;;;;19.80;5.10;;;23.80;50.00;;;;;;4955472;28;20110;-75
2022/05/26 05:21:15;;;;;;;15.95;4.47;;;23.90;50.70;;;;;;4955330;28;20062;-73
2022/05/26 05:23:46;;;;;;;17.20;4.95;;;23.90;50.70;;;;;;4955579;28;20062;-73
2022/05/26 05:26:15;;;;;;;14.45;4.80;;;24.00;50.60;;;;;;4955516;28;20101;-73
2022/05/26 05:28:45;;;;;;;14.43;5.28;;;24.00;50.50;;;;;;4955271;28;20023;-71
2022/05/26 05:31:26;;;;;;;16.38;5.20;;;24.10;50.20;;;;;;4955546;28;20061;-72
2022/05/26 05:33:59;;;;;;;11.10;4.43;;;24.10;49.90;;;;;;4955682;28;20062;-73
2022/05/26 05:36:28;;;;;;;11.98;4.22;;;24.20;49.90;;;;;;4956408;28;20027;-72
2022/05/26 05:38:55;;;;;;;16.88;4.70;;;24.20;49.90;;;;;;4956344;28;20031;-73
2022/05/26 05:41:21;;;;;;;15.18;5.22;;;24.30;49.70;;;;;;4955684;28;20042;-68
2022/05/26 05:43:48;;;;;;;13.02;5.00;;;24.30;49.50;;;;;;4955381;28;20031;-79
2022/05/26 05:46:19;;;;;;;15.75;4.88;;;24.40;49.30;;;;;;4955170;28;20058;-71
2022/05/26 05:48:46;;;;;;;11.32;4.57;;;24.40;48.90;;;;;;4955361;29;20527;-74
2022/05/26 05:51:12;;;;;;;15.02;4.82;;;24.40;49.40;;;;;;4954684;28;20051;-72
2022/05/26 05:53:38;;;;;;;13.25;4.25;;;24.30;49.60;;;;;;4954920;28;20035;-71
2022/05/26 05:56:04;;;;;;;19.88;5.15;;;24.40;49.20;;;;;;4953591;28;20023;-71
2022/05/26 05:58:30;;;;;;;16.15;4.93;;;24.50;49.00;;;;;;4954668;28;20027;-73
2022/05/26 06:00:57;;;;;;;21.23;5.05;;;24.50;48.90;;;;;;4954534;28;20031;-75
2022/05/26 06:03:23;;;;;;;13.48;4.95;;;24.70;48.80;;;;;;4954674;28;20106;-78
2022/05/26 06:05:49;;;;;;;21.77;5.47;;;24.80;48.50;;;;;;4954819;29;20440;-74
2022/05/26 06:08:14;;;;;;;17.30;4.90;;;24.90;48.30;;;;;;4954778;28;20106;-75
2022/05/26 06:10:40;;;;;;;11.48;4.63;;;25.00;48.20;;;;;;4954729;28;20112;-74
2022/05/26 06:13:06;;;;;;;23.48;4.43;;;25.20;48.00;;;;;;4954914;28;20023;-72
2022/05/26 06:15:33;;;;;;;12.00;4.53;;;25.30;47.90;;;;;;4954754;29;20489;-73
2022/05/26 06:17:59;;;;;;;16.80;5.53;;;25.30;47.90;;;;;;4954470;28;20027;-73
2022/05/26 06:20:26;;;;;;;24.60;5.35;;;25.50;47.80;;;;;;4954484;28;20027;-73
2022/05/26 06:22:52;;;;;;;15.85;4.72;;;25.70;47.50;;;;;;4954646;28;20517;-74
2022/05/26 06:25:20;;;;;;;14.40;5.28;;;25.80;47.30;;;;;;4937376;29;20019;-74
2022/05/26 06:30:30;;;;;;;15.55;5.05;;;25.90;47.20;;;;;;4954673;28;20033;-73
2022/05/26 06:38:34;;;;;;;17.92;5.45;;;26.70;46.50;;;;;;4954556;29;20104;-73
2022/05/26 06:42:05;;;;;;;18.45;5.82;;;27.10;45.70;;;;;;4954477;28;20551;-74
2022/05/26 06:43:45;;;;;;;16.23;5.22;;;27.30;45.60;;;;;;4954094;29;20031;-76
2022/05/26 06:46:11;;;;;;;21.73;4.78;;;27.90;44.70;;;;;;4954597;29;20420;-71
2022/05/26 06:48:36;;;;;;;25.85;6.20;;;28.20;44.10;;;;;;4954699;28;20042;-72
2022/05/26 06:51:06;;;;;;;16.63;4.63;;;28.40;43.60;;;;;;4953894;28;20042;-72
2022/05/26 06:53:32;;;;;;;17.60;5.57;;;28.40;42.30;;;;;;4954394;28;20042;-73
2022/05/26 06:55:58;;;;;;;23.58;5.90;;;28.40;43.20;;;;;;4955889;28;20086;-71
2022/05/26 06:58:25;;;;;;;27.48;4.97;;;28.40;42.80;;;;;;4958076;29;20031;-72
2022/05/26 07:00:51;;;;;;;20.27;5.93;;;28.60;42.20;;;;;;4957768;28;20152;-72
2022/05/26 07:03:18;;;;;;;18.85;4.93;;;28.60;42.20;;;;;;4957997;28;20032;-71
2022/05/26 07:05:44;;;;;;;19.30;6.03;;;28.80;41.10;;;;;;4957795;28;20030;-72
2022/05/26 07:08:10;;;;;;;16.92;5.22;;;29.00;41.90;;;;;;4957724;29;20032;-75
2022/05/26 07:10:37;;;;;;;24.23;6.35;;;29.20;41.80;;;;;;4957839;29;20032;-75
2022/05/26 07:13:03;;;;;;;32.47;6.07;;;29.40;41.60;;;;;;4957612;29;20027;-74
2022/05/26 07:15:29;;;;;;;21.13;5.20;;;29.30;41.50;;;;;;4957581;29;20039;-69
2022/05/26 07:17:55;;;;;;;29.90;6.38;;;29.10;41.10;;;;;;4957759;28;20027;-70
2022/05/26 07:20:20;;;;;;;19.05;5.20;;;28.80;41.60;;;;;;4957817;28;20023;-70
2022/05/26 07:22:46;;;;;;;18.35;5.72;;;28.60;41.50;;;;;;4957676;28;20055;-71
2022/05/26 07:25:12;;;;;;;21.65;5.43;;;28.50;41.60;;;;;;4957750;28;20461;-72
2022/05/26 07:27:38;;;;;;;23.08;5.85;;;28.40;41.60;;;;;;4957311;28;20034;-69
2022/05/26 07:30:05;;;;;;;14.68;4.72;;;28.30;41.70;;;;;;4957356;28;20034;-72
2022/05/26 07:32:31;;;;;;;18.95;5.65;;;28.20;41.60;;;;;;4957563;28;20057;-73
2022/05/26 07:34:58;;;;;;;23.65;4.72;;;28.10;42.00;;;;;;4957346;28;20043;-73
2022/05/26 07:42:55;;;;;;;18.65;5.53;;;27.80;42.20;;;;;;4957510;29;20034;-71
2022/05/26 07:45:21;;;;;;;19.45;5.53;;;27.80;42.70;;;;;;4957487;28;20099;-69
2022/05/26 07:47:47;;;;;;;19.48;5.95;;;27.70;43.70;;;;;;4957295;28;20038;-69
2022/05/26 07:50:19;;;;;;;13.90;4.65;;;27.70;42.90;;;;;;4956652;28;20480;-70
2022/05/26 07:52:48;;;;;;;16.27;5.17;;;27.70;43.40;;;;;;4956871;28;20106;-72
2022/05/26 07:55:18;;;;;;;20.02;5.55;;;27.70;42.00;;;;;;4956933;28;20082;-73
2022/05/26 07:57:46;;;;;;;18.15;5.07;;;27.60;41.80;;;;;;4956801;29;20031;-69
2022/05/26 08:00:15;;;;;;;24.15;4.90;;;27.70;41.70;;;;;;4955519;29;20027;-72
2022/05/26 08:02:42;;;;;;;19.23;5.40;;;27.60;42.60;;;;;;4956897;28;20184;-68
2022/05/26 08:05:09;;;;;;;20.88;5.13;;;27.70;43.70;;;;;;4957056;28;20019;-80
2022/05/26 08:07:35;;;;;;;16.85;5.25;;;27.80;42.90;;;;;;4956377;28;20023;-75
2022/05/26 08:10:02;;;;;;;15.32;4.82;;;27.90;41.70;;;;;;4955680;29;20114;-68
2022/05/26 08:12:27;;;;;;;21.25;5.72;;;28.10;41.80;;;;;;4956562;28;20465;-76
2022/05/26 08:14:53;;;;;;;19.77;5.78;;;28.20;41.60;;;;;;4956588;28;20039;-69
2022/05/26 08:17:22;;;;;;;23.98;6.25;;;28.40;41.20;;;;;;4956688;28;20081;-74
2022/05/26 08:19:48;;;;;;;26.40;6.05;;;28.50;41.10;;;;;;4956455;28;20031;-73
2022/05/26 08:22:15;;;;;;;25.48;7.22;;;28.60;41.00;;;;;;4956710;28;20518;-71
2022/05/26 08:24:41;;;;;;;24.17;5.53;;;28.70;41.30;;;;;;4956451;28;20114;-70
2022/05/26 08:27:07;;;;;;;19.45;5.38;;;28.70;41.00;;;;;;4956229;28;20441;-70
2022/05/26 08:29:34;;;;;;;20.35;5.82;;;28.70;41.20;;;;;;4956116;28;20034;-72
2022/05/26 08:32:00;;;;;;;16.85;5.03;;;28.80;40.60;;;;;;4956278;29;20098;-74
2022/05/26 08:34:26;;;;;;;17.45;5.47;;;28.80;40.40;;;;;;4956231;28;20425;-69
2022/05/26 08:36:51;;;;;;;14.18;5.93;;;28.80;40.50;;;;;;4956006;28;20019;-69
2022/05/26 08:39:17;;;;;;;21.73;5.43;;;28.90;40.40;;;;;;4955823;29;20062;-71
2022/05/26 08:41:48;;;;;;;18.05;5.28;;;28.90;39.80;;;;;;4956068;29;20023;-74
2022/05/26 08:44:34;;;;;;;18.88;5.70;;;29.00;39.30;;;;;;4955824;28;20031;-70
2022/05/26 08:47:18;;;;;;;15.65;5.40;;;29.10;40.10;;;;;;4955971;28;20019;-79
2022/05/26 08:50:00;;;;;;;19.70;5.82;;;29.10;39.90;;;;;;4956420;28;20027;-69
2022/05/26 08:52:34;;;;;;;20.40;6.45;;;29.30;39.50;;;;;;4954213;28;20044;-73
2022/05/26 08:55:06;;;;;;;14.82;5.00;;;29.40;39.40;;;;;;4955794;28;20102;-68
2022/05/26 08:57:43;;;;;;;16.73;5.60;;;29.40;39.20;;;;;;4955661;28;20102;-70
2022/05/26 09:00:13;;;;;;;16.17;5.30;;;29.40;39.30;;;;;;4955903;28;20044;-72
2022/05/26 09:02:39;;;;;;;16.20;5.20;;;29.50;39.60;;;;;;4955641;28;20075;-71
2022/05/26 09:05:18;;;;;;;16.25;4.80;;;29.50;39.40;;;;;;4955684;28;20070;-69
2022/05/26 09:13:41;;;;;;;17.05;4.95;;;29.60;39.00;;;;;;4955731;29;20507;-72
2022/05/26 09:16:08;;;;;;;12.68;4.63;;;29.60;39.10;;;;;;4955922;28;20130;-76
2022/05/26 09:18:37;;;;;;;15.55;4.53;;;29.60;39.10;;;;;;4955270;28;20031;-69
2022/05/26 09:21:16;;;;;;;15.80;4.80;;;29.60;39.20;;;;;;4955536;29;20381;-68
2022/05/26 09:23:44;;;;;;;22.40;5.28;;;29.60;39.30;;;;;;4955529;28;20034;-76
2022/05/26 09:26:15;;;;;;;23.08;10.15;;;29.60;39.10;;;;;;4955221;28;20476;-71
2022/05/26 09:28:45;;;;;;;18.63;6.95;;;29.60;40.50;;;;;;4953989;29;20546;-77
2022/05/26 09:31:29;;;;;;;19.05;5.90;;;29.70;40.10;;;;;;4955537;28;20050;-80
2022/05/26 09:34:17;;;;;;;13.45;5.18;;;29.70;39.30;;;;;;4955955;28;20457;-76
2022/05/26 09:37:07;;;;;;;19.50;6.20;;;29.70;39.50;;;;;;4954272;28;20035;-72
2022/05/26 09:39:39;;;;;;;12.70;4.75;;;29.90;39.70;;;;;;4954925;28;20121;-72
2022/05/26 09:42:27;;;;;;;15.05;5.25;;;29.90;39.70;;;;;;4955086;29;20074;-69
2022/05/26 09:45:06;;;;;;;15.70;5.10;;;30.00;39.40;;;;;;4953711;29;20097;-74
2022/05/26 09:47:55;;;;;;;14.27;4.60;;;30.00;38.60;;;;;;4955595;29;20537;-75
2022/05/26 09:50:52;;;;;;;16.05;4.03;;;30.00;38.70;;;;;;4952458;29;20026;-79
2022/05/26 09:53:33;;;;;;;11.63;4.57;;;30.00;38.30;;;;;;4955299;28;20031;-74
2022/05/26 09:55:59;;;;;;;12.50;3.75;;;30.00;37.90;;;;;;4955829;28;20051;-71
2022/05/26 09:58:31;;;;;;;11.98;4.30;;;30.10;37.80;;;;;;4955652;28;20051;-69
2022/05/26 10:01:23;;;;;;;11.57;4.70;;;30.10;38.00;;;;;;4954979;28;20560;-71
2022/05/26 10:03:55;;;;;;;13.15;4.53;;;30.20;37.90;;;;;;4952305;28;20113;-74
2022/05/26 10:06:44;;;;;;;16.88;4.50;;;30.30;38.20;;;;;;4954968;29;20110;-71
2022/05/26 10:09:45;;;;;;;15.40;4.55;;;30.40;38.00;;;;;;4955594;28;20023;-70
2022/05/26 10:12:47;;;;;;;14.52;4.72;;;30.40;37.70;;;;;;4954774;29;20050;-70
2022/05/26 10:15:31;;;;;;;16.88;4.50;;;30.40;38.00;;;;;;4943295;29;20119;-69
2022/05/26 10:18:24;;;;;;;11.43;4.70;;;30.50;37.90;;;;;;4955028;28;20054;-72
2022/05/26 10:21:11;;;;;;;12.90;4.07;;;30.50;37.70;;;;;;4954797;29;20034;-72
2022/05/26 10:24:04;;;;;;;15.88;4.45;;;30.60;38.00;;;;;;4955568;29;20028;-72
2022/05/26 10:26:44;;;;;;;12.02;4.30;;;30.60;38.20;;;;;;4957037;29;20028;-71
2022/05/26 10:29:41;;;;;;;26.98;5.70;;;30.60;37.70;;;;;;4954902;28;20493;-70
2022/05/26 10:32:20;;;;;;;13.15;5.38;;;30.70;37.50;;;;;;4958397;28;20102;-73
2022/05/26 10:35:11;;;;;;;25.27;5.95;;;30.70;37.90;;;;;;4956940;28;20043;-69
2022/05/26 10:38:12;;;;;;;12.13;4.57;;;30.70;37.80;;;;;;4958979;28;20555;-68
2022/05/26 10:40:54;;;;;;;32.78;5.75;;;30.70;36.80;;;;;;4958726;28;20338;-67
2022/05/26 10:43:47;;;;;;;22.58;4.93;;;30.70;37.30;;;;;;4957256;29;20027;-68
2022/05/26 10:46:14;;;;;;;18.05;4.07;;;30.70;37.50;;;;;;4958187;28;20029;-67
2022/05/26 10:48:43;;;;;;;20.55;4.78;;;30.70;36.80;;;;;;4958228;29;20019;-66
2022/05/26 10:51:31;;;;;;;29.50;5.55;;;30.80;36.80;;;;;;4958220;28;20058;-65
2022/05/26 10:54:45;;;;;;;21.45;5.97;;;30.80;37.60;;;;;;4958337;28;20043;-67
2022/05/26 10:57:44;;;;;;;13.50;4.10;;;30.90;37.40;;;;;;4958018;28;20051;-68
2022/05/26 11:00:25;;;;;;;15.07;4.25;;;31.00;37.10;;;;;;4956289;28;20020;-69
2022/05/26 11:03:11;;;;;;;18.17;5.25;;;31.10;36.60;;;;;;4957924;28;20530;-73
2022/05/26 11:05:50;;;;;;;37.78;6.32;;;31.20;37.00;;;;;;4958048;28;20182;-73
2022/05/26 11:08:26;;;;;;;17.98;5.00;;;31.20;36.90;;;;;;4957860;28;20040;-70
2022/05/26 11:11:14;;;;;;;15.95;4.55;;;31.30;37.30;;;;;;4957747;28;20028;-72
2022/05/26 11:13:47;;;;;;;12.65;4.00;;;31.30;36.30;;;;;;4957696;28;20039;-70
2022/05/26 11:20:04;;;;;;;18.42;4.65;;;31.50;36.00;;;;;;4957676;29;20033;-70
2022/05/26 11:22:30;;;;;;;14.07;4.25;;;31.60;35.70;;;;;;4941749;28;20035;-69
2022/05/26 11:24:58;;;;;;;14.23;4.30;;;31.70;35.10;;;;;;4958201;28;20031;-73
2022/05/26 11:27:31;;;;;;;15.32;4.35;;;31.70;35.00;;;;;;4957136;28;20110;-71
2022/05/26 11:30:02;;;;;;;20.52;4.63;;;31.80;35.20;;;;;;4957349;29;20024;-76
2022/05/26 11:38:32;;;;;;;20.23;4.63;;;31.80;35.70;;;;;;4957523;28;20046;-72
2022/05/26 11:41:00;;;;;;;43.83;7.28;;;31.80;35.90;;;;;;4957055;28;20061;-70
2022/05/26 11:43:37;;;;;;;20.05;5.75;;;31.90;35.30;;;;;;4956018;28;20035;-73
2022/05/26 11:46:02;;;;;;;20.02;4.28;;;31.90;35.00;;;;;;4956874;29;20079;-69
2022/05/26 11:48:34;;;;;;;28.20;5.07;;;32.00;34.80;;;;;;4957190;28;20421;-70
2022/05/26 11:51:28;;;;;;;23.83;5.20;;;32.00;35.30;;;;;;4956598;28;20071;-70
2022/05/26 11:53:54;;;;;;;15.57;4.30;;;32.00;36.40;;;;;;4954346;28;20146;-68
2022/05/26 11:56:26;;;;;;;15.68;5.00;;;32.10;34.90;;;;;;4955367;28;20027;-72
2022/05/26 11:59:32;;;;;;;11.57;4.22;;;32.20;34.80;;;;;;4955301;29;20067;-71
2022/05/26 12:02:00;;;;;;;19.95;4.93;;;32.20;35.90;;;;;;4956774;29;20063;-70
2022/05/26 12:04:26;;;;;;;17.40;4.95;;;32.30;35.00;;;;;;4956737;28;20037;-72
2022/05/26 12:07:05;;;;;;;17.35;4.88;;;32.30;35.00;;;;;;4956958;28;20098;-70
2022/05/26 12:09:53;;;;;;;15.45;5.00;;;32.40;36.10;;;;;;4956667;28;20031;-72
2022/05/26 12:12:21;;;;;;;13.40;4.35;;;32.50;35.90;;;;;;4956407;28;20024;-69
2022/05/26 12:14:47;;;;;;;24.02;5.00;;;32.60;34.80;;;;;;4956687;29;20126;-69
2022/05/26 12:17:40;;;;;;;19.15;5.05;;;32.60;35.30;;;;;;4956367;29;20066;-71
2022/05/26 12:20:12;;;;;;;17.67;4.28;;;32.70;35.50;;;;;;4956613;28;20058;-72
2022/05/26 12:22:41;;;;;;;29.70;5.50;;;32.70;34.40;;;;;;4956346;28;20038;-77
2022/05/26 12:25:25;;;;;;;23.13;5.78;;;32.70;35.00;;;;;;4956418;28;20070;-71
2022/05/26 12:27:56;;;;;;;;;;;32.70;35.50;;;;;;4956984;29;20028;-78
2022/05/26 12:30:46;;;;;;;20.52;4.40;;;32.70;34.90;;;;;;4955413;29;20268;-80
2022/05/26 12:33:25;;;;;;;14.82;4.28;;;32.70;35.10;;;;;;4956413;28;20078;-80
2022/05/26 12:36:29;;;;;;;12.20;3.67;;;32.80;34.10;;;;;;4956563;29;20059;-77
2022/05/26 12:39:31;;;;;;;13.90;4.20;;;33.00;33.90;;;;;;4956411;28;20031;-72
2022/05/26 12:42:16;;;;;;;9.00;3.85;;;33.10;35.20;;;;;;4956788;28;20027;-72
2022/05/26 12:45:11;;;;;;;10.40;3.90;;;33.20;34.60;;;;;;4956515;29;20564;-70
2022/05/26 12:48:00;;;;;;;14.30;4.38;;;33.20;33.50;;;;;;4955255;29;20054;-70
2022/05/26 12:50:26;;;;;;;11.68;4.13;;;33.30;34.00;;;;;;4955820;28;20035;-69
2022/05/26 12:52:55;;;;;;;13.20;4.18;;;33.30;33.70;;;;;;4955485;28;20349;-69
2022/05/26 12:55:33;;;;;;;15.77;3.97;;;33.30;33.70;;;;;;4955588;28;20035;-68
2022/05/26 12:58:04;;;;;;;12.40;4.25;;;33.40;33.40;;;;;;4955337;29;20031;-71
2022/05/26 13:00:34;;;;;;;35.17;7.05;;;33.40;32.50;;;;;;4955479;28;20094;-70
2022/05/26 13:03:04;;;;;;;17.75;4.30;;;33.50;33.10;;;;;;4956028;28;20031;-72
2022/05/26 13:05:34;;;;;;;16.88;4.55;;;33.50;32.90;;;;;;4955425;28;20041;-69
2022/05/26 13:08:01;;;;;;;10.95;3.83;;;33.50;33.00;;;;;;4955637;29;20055;-65
2022/05/26 13:10:40;;;;;;;14.05;3.60;;;33.50;33.20;;;;;;4955546;29;20027;-66
2022/05/26 13:13:30;;;;;;;16.77;4.35;;;33.50;32.40;;;;;;4955835;29;20027;-66
2022/05/26 13:16:33;;;;;;;17.35;4.43;;;33.50;32.40;;;;;;4955883;28;20501;-66
2022/05/26 13:19:20;;;;;;;10.13;4.03;;;33.50;32.30;;;;;;4954160;28;20038;-65
2022/05/26 13:21:52;;;;;;;12.55;3.80;;;33.60;32.00;;;;;;4955613;28;20011;-67
2022/05/26 13:24:24;;;;;;;12.82;5.03;;;33.60;32.50;;;;;;4955680;28;20063;-66
2022/05/26 13:27:13;;;;;;;10.80;3.42;;;33.70;32.70;;;;;;4955624;28;20031;-66
2022/05/26 13:29:44;;;;;;;10.98;4.40;;;33.60;32.50;;;;;;4954948;28;20032;-66
2022/05/26 13:35:09;;;;;;;13.75;4.13;;;33.70;32.60;;;;;;4953982;28;20119;-68
2022/05/26 13:37:41;;;;;;;15.38;3.83;;;33.70;32.40;;;;;;4955096;29;20027;-66
2022/05/26 13:40:16;;;;;;;12.60;3.53;;;33.70;32.10;;;;;;4955295;28;20413;-66
2022/05/26 13:42:50;;;;;;;14.90;3.85;;;33.80;32.00;;;;;;4955350;28;20514;-65
2022/05/26 13:45:34;;;;;;;21.05;8.55;;;33.80;31.70;;;;;;4955196;28;20031;-65
2022/05/26 13:48:36;;;;;;;16.27;4.82;;;33.80;31.40;;;;;;4955301;28;20103;-66
2022/05/26 13:51:13;;;;;;;17.30;4.00;;;33.90;31.80;;;;;;4955469;28;20150;-68
2022/05/26 13:53:45;;;;;;;13.27;3.85;;;33.90;32.00;;;;;;4954902;28;20465;-66